sensor_id;sensor_type;location;lat;lon;timestamp;P1;durP1;ratioP1;P2;durP2;ratioP2
23578;SDS011;11967;50.852;4.400;2023-05-10T00:00:56;18.38;;;7.18;;
23578;SDS011;11967;50.852;4.400;2023-05-10T00:03:21;15.18;;;7.18;;
23578;SDS011;11967;50.852;4.400;2023-05-10T00:05:47;17.60;;;7.72;;
23578;SDS011;11967;50.852;4.400;2023-05-10T00:08:13;11.98;;;6.95;;
23578;SDS011;11967;50.852;4.400;2023-05-10T00:10:38;13.02;;;7.53;;
23578;SDS011;11967;50.852;4.400;2023-05-10T00:13:05;19.13;;;8.32;;
23578;SDS011;11967;50.852;4.400;2023-05-10T00:15:30;14.82;;;7.93;;
23578;SDS011;11967;50.852;4.400;2023-05-10T00:17:56;15.10;;;7.97;;
23578;SDS011;11967;50.852;4.400;2023-05-10T00:20:22;19.25;;;8.05;;
23578;SDS011;11967;50.852;4.400;2023-05-10T00:22:48;14.93;;;8.45;;
23578;SDS011;11967;50.852;4.400;2023-05-10T00:25:13;19.45;;;8.10;;
23578;SDS011;11967;50.852;4.400;2023-05-10T00:27:39;17.73;;;9.30;;
23578;SDS011;11967;50.852;4.400;2023-05-10T00:30:05;18.73;;;8.40;;
23578;SDS011;11967;50.852;4.400;2023-05-10T00:32:32;15.85;;;8.70;;
23578;SDS011;11967;50.852;4.400;2023-05-10T00:34:58;21.33;;;8.93;;
23578;SDS011;11967;50.852;4.400;2023-05-10T00:37:24;15.18;;;8.70;;
23578;SDS011;11967;50.852;4.400;2023-05-10T00:39:49;15.30;;;8.60;;
23578;SDS011;11967;50.852;4.400;2023-05-10T00:42:15;16.35;;;8.35;;
23578;SDS011;11967;50.852;4.400;2023-05-10T00:44:42;14.85;;;8.45;;
23578;SDS011;11967;50.852;4.400;2023-05-10T00:47:10;12.98;;;8.60;;
23578;SDS011;11967;50.852;4.400;2023-05-10T00:49:36;18.52;;;9.27;;
23578;SDS011;11967;50.852;4.400;2023-05-10T00:52:03;16.02;;;9.43;;
23578;SDS011;11967;50.852;4.400;2023-05-10T00:54:29;17.95;;;9.60;;
23578;SDS011;11967;50.852;4.400;2023-05-10T00:56:55;16.55;;;9.20;;
23578;SDS011;11967;50.852;4.400;2023-05-10T00:59:22;14.57;;;8.52;;
23578;SDS011;11967;50.852;4.400;2023-05-10T01:01:48;20.77;;;8.52;;
23578;SDS011;11967;50.852;4.400;2023-05-10T01:04:14;15.00;;;9.27;;
23578;SDS011;11967;50.852;4.400;2023-05-10T01:06:40;17.30;;;9.50;;
23578;SDS011;11967;50.852;4.400;2023-05-10T01:09:06;17.77;;;9.63;;
23578;SDS011;11967;50.852;4.400;2023-05-10T01:11:36;16.15;;;9.38;;
23578;SDS011;11967;50.852;4.400;2023-05-10T01:14:04;17.40;;;9.75;;
23578;SDS011;11967;50.852;4.400;2023-05-10T01:16:36;19.38;;;10.13;;
23578;SDS011;11967;50.852;4.400;2023-05-10T01:19:04;16.17;;;9.55;;
23578;SDS011;11967;50.852;4.400;2023-05-10T01:21:38;16.67;;;10.07;;
23578;SDS011;11967;50.852;4.400;2023-05-10T01:30:08;20.55;;;11.25;;
23578;SDS011;11967;50.852;4.400;2023-05-10T01:44:07;17.83;;;11.07;;
23578;SDS011;11967;50.852;4.400;2023-05-10T01:46:38;20.50;;;11.10;;
23578;SDS011;11967;50.852;4.400;2023-05-10T01:49:10;19.10;;;11.35;;
23578;SDS011;11967;50.852;4.400;2023-05-10T01:51:42;19.63;;;11.20;;
23578;SDS011;11967;50.852;4.400;2023-05-10T01:54:17;19.25;;;11.45;;
23578;SDS011;11967;50.852;4.400;2023-05-10T01:56:44;21.95;;;11.50;;
23578;SDS011;11967;50.852;4.400;2023-05-10T01:59:16;22.45;;;11.18;;
23578;SDS011;11967;50.852;4.400;2023-05-10T02:01:44;19.08;;;11.10;;
23578;SDS011;11967;50.852;4.400;2023-05-10T02:04:13;17.33;;;10.70;;
23578;SDS011;11967;50.852;4.400;2023-05-10T02:06:40;18.17;;;11.50;;
23578;SDS011;11967;50.852;4.400;2023-05-10T02:09:07;19.67;;;11.18;;
23578;SDS011;11967;50.852;4.400;2023-05-10T02:11:38;17.42;;;10.32;;
23578;SDS011;11967;50.852;4.400;2023-05-10T02:14:07;20.38;;;11.82;;
23578;SDS011;11967;50.852;4.400;2023-05-10T02:16:36;20.48;;;11.77;;
23578;SDS011;11967;50.852;4.400;2023-05-10T02:19:04;22.02;;;11.82;;
23578;SDS011;11967;50.852;4.400;2023-05-10T02:21:31;16.70;;;11.10;;
23578;SDS011;11967;50.852;4.400;2023-05-10T02:23:58;18.02;;;11.35;;
23578;SDS011;11967;50.852;4.400;2023-05-10T02:26:25;21.95;;;11.95;;
23578;SDS011;11967;50.852;4.400;2023-05-10T02:28:52;22.63;;;11.98;;
23578;SDS011;11967;50.852;4.400;2023-05-10T02:31:19;19.02;;;11.15;;
23578;SDS011;11967;50.852;4.400;2023-05-10T02:33:46;21.45;;;11.77;;
23578;SDS011;11967;50.852;4.400;2023-05-10T02:36:13;19.15;;;10.77;;
23578;SDS011;11967;50.852;4.400;2023-05-10T02:38:40;16.95;;;11.32;;
23578;SDS011;11967;50.852;4.400;2023-05-10T02:41:07;18.50;;;11.27;;
23578;SDS011;11967;50.852;4.400;2023-05-10T02:43:34;19.80;;;10.93;;
23578;SDS011;11967;50.852;4.400;2023-05-10T02:46:01;20.80;;;11.60;;
23578;SDS011;11967;50.852;4.400;2023-05-10T02:48:27;21.05;;;11.00;;
23578;SDS011;11967;50.852;4.400;2023-05-10T02:50:53;16.08;;;10.38;;
23578;SDS011;11967;50.852;4.400;2023-05-10T02:53:30;19.50;;;10.88;;
23578;SDS011;11967;50.852;4.400;2023-05-10T02:55:58;17.97;;;10.70;;
23578;SDS011;11967;50.852;4.400;2023-05-10T02:58:26;18.33;;;10.80;;
23578;SDS011;11967;50.852;4.400;2023-05-10T03:00:52;17.27;;;9.98;;
23578;SDS011;11967;50.852;4.400;2023-05-10T03:03:18;18.65;;;10.30;;
23578;SDS011;11967;50.852;4.400;2023-05-10T03:05:44;18.90;;;10.70;;
23578;SDS011;11967;50.852;4.400;2023-05-10T03:08:10;18.33;;;10.75;;
23578;SDS011;11967;50.852;4.400;2023-05-10T03:10:38;20.50;;;10.82;;
23578;SDS011;11967;50.852;4.400;2023-05-10T03:13:16;18.40;;;10.88;;
23578;SDS011;11967;50.852;4.400;2023-05-10T03:16:07;16.55;;;10.63;;
23578;SDS011;11967;50.852;4.400;2023-05-10T03:21:30;17.83;;;9.65;;
23578;SDS011;11967;50.852;4.400;2023-05-10T03:26:26;19.13;;;11.30;;
23578;SDS011;11967;50.852;4.400;2023-05-10T03:28:53;18.95;;;11.25;;
23578;SDS011;11967;50.852;4.400;2023-05-10T03:31:20;18.85;;;11.60;;
23578;SDS011;11967;50.852;4.400;2023-05-10T03:33:47;18.25;;;11.20;;
23578;SDS011;11967;50.852;4.400;2023-05-10T03:36:15;19.75;;;11.82;;
23578;SDS011;11967;50.852;4.400;2023-05-10T03:38:41;19.52;;;11.77;;
23578;SDS011;11967;50.852;4.400;2023-05-10T03:41:07;19.73;;;11.90;;
23578;SDS011;11967;50.852;4.400;2023-05-10T03:43:33;19.70;;;12.05;;
23578;SDS011;11967;50.852;4.400;2023-05-10T03:46:01;20.92;;;12.57;;
23578;SDS011;11967;50.852;4.400;2023-05-10T03:48:27;18.92;;;11.35;;
23578;SDS011;11967;50.852;4.400;2023-05-10T03:50:53;23.02;;;12.65;;
23578;SDS011;11967;50.852;4.400;2023-05-10T03:53:18;23.45;;;13.25;;
23578;SDS011;11967;50.852;4.400;2023-05-10T03:55:44;21.98;;;12.98;;
23578;SDS011;11967;50.852;4.400;2023-05-10T03:58:10;29.52;;;14.35;;
23578;SDS011;11967;50.852;4.400;2023-05-10T04:00:37;22.20;;;14.38;;
23578;SDS011;11967;50.852;4.400;2023-05-10T04:03:08;23.35;;;13.88;;
23578;SDS011;11967;50.852;4.400;2023-05-10T04:05:35;22.00;;;13.57;;
23578;SDS011;11967;50.852;4.400;2023-05-10T04:08:01;22.40;;;13.02;;
23578;SDS011;11967;50.852;4.400;2023-05-10T04:10:27;21.73;;;13.27;;
23578;SDS011;11967;50.852;4.400;2023-05-10T04:12:53;26.30;;;15.27;;
23578;SDS011;11967;50.852;4.400;2023-05-10T04:15:18;27.00;;;14.98;;
23578;SDS011;11967;50.852;4.400;2023-05-10T04:17:47;25.52;;;14.77;;
23578;SDS011;11967;50.852;4.400;2023-05-10T04:20:13;23.30;;;14.95;;
23578;SDS011;11967;50.852;4.400;2023-05-10T04:22:40;21.80;;;14.05;;
23578;SDS011;11967;50.852;4.400;2023-05-10T04:25:06;22.58;;;14.68;;
23578;SDS011;11967;50.852;4.400;2023-05-10T04:27:32;24.67;;;14.82;;
23578;SDS011;11967;50.852;4.400;2023-05-10T04:29:58;23.33;;;15.00;;
23578;SDS011;11967;50.852;4.400;2023-05-10T04:32:24;23.98;;;15.68;;
23578;SDS011;11967;50.852;4.400;2023-05-10T04:34:49;27.77;;;15.73;;
23578;SDS011;11967;50.852;4.400;2023-05-10T04:37:19;25.95;;;16.38;;
23578;SDS011;11967;50.852;4.400;2023-05-10T04:39:47;28.08;;;16.17;;
23578;SDS011;11967;50.852;4.400;2023-05-10T04:42:12;27.98;;;16.70;;
23578;SDS011;11967;50.852;4.400;2023-05-10T04:44:39;32.10;;;17.50;;
23578;SDS011;11967;50.852;4.400;2023-05-10T04:47:05;29.08;;;17.33;;
23578;SDS011;11967;50.852;4.400;2023-05-10T04:49:31;27.75;;;16.70;;
23578;SDS011;11967;50.852;4.400;2023-05-10T04:51:58;28.20;;;17.73;;
23578;SDS011;11967;50.852;4.400;2023-05-10T04:54:24;29.50;;;17.20;;
23578;SDS011;11967;50.852;4.400;2023-05-10T04:56:49;26.65;;;16.92;;
23578;SDS011;11967;50.852;4.400;2023-05-10T04:59:15;25.05;;;16.50;;
23578;SDS011;11967;50.852;4.400;2023-05-10T05:01:42;29.02;;;17.55;;
23578;SDS011;11967;50.852;4.400;2023-05-10T05:04:08;31.73;;;18.42;;
23578;SDS011;11967;50.852;4.400;2023-05-10T05:06:34;28.10;;;19.60;;
23578;SDS011;11967;50.852;4.400;2023-05-10T05:08:59;29.23;;;18.23;;
23578;SDS011;11967;50.852;4.400;2023-05-10T05:11:25;29.75;;;18.23;;
23578;SDS011;11967;50.852;4.400;2023-05-10T05:13:52;28.77;;;18.48;;
23578;SDS011;11967;50.852;4.400;2023-05-10T05:16:17;26.70;;;16.98;;
23578;SDS011;11967;50.852;4.400;2023-05-10T05:18:43;29.83;;;16.90;;
23578;SDS011;11967;50.852;4.400;2023-05-10T05:21:15;27.75;;;17.95;;
23578;SDS011;11967;50.852;4.400;2023-05-10T05:23:47;29.30;;;19.40;;
23578;SDS011;11967;50.852;4.400;2023-05-10T05:26:13;28.42;;;18.05;;
23578;SDS011;11967;50.852;4.400;2023-05-10T05:28:39;30.55;;;18.75;;
23578;SDS011;11967;50.852;4.400;2023-05-10T05:31:05;35.08;;;19.25;;
23578;SDS011;11967;50.852;4.400;2023-05-10T05:33:32;30.92;;;19.25;;
23578;SDS011;11967;50.852;4.400;2023-05-10T05:36:03;30.05;;;18.77;;
23578;SDS011;11967;50.852;4.400;2023-05-10T05:38:29;23.75;;;15.00;;
23578;SDS011;11967;50.852;4.400;2023-05-10T05:40:55;20.05;;;11.90;;
23578;SDS011;11967;50.852;4.400;2023-05-10T05:43:22;16.15;;;10.88;;
23578;SDS011;11967;50.852;4.400;2023-05-10T05:45:48;17.70;;;11.02;;
23578;SDS011;11967;50.852;4.400;2023-05-10T05:48:14;14.23;;;9.93;;
23578;SDS011;11967;50.852;4.400;2023-05-10T05:50:41;15.52;;;9.75;;
23578;SDS011;11967;50.852;4.400;2023-05-10T05:53:07;16.27;;;10.05;;
23578;SDS011;11967;50.852;4.400;2023-05-10T05:55:34;15.75;;;9.50;;
23578;SDS011;11967;50.852;4.400;2023-05-10T05:57:59;14.80;;;9.80;;
23578;SDS011;11967;50.852;4.400;2023-05-10T06:00:25;19.30;;;10.48;;
23578;SDS011;11967;50.852;4.400;2023-05-10T06:02:51;18.52;;;10.90;;
23578;SDS011;11967;50.852;4.400;2023-05-10T06:05:17;18.45;;;10.98;;
23578;SDS011;11967;50.852;4.400;2023-05-10T06:07:42;21.13;;;11.88;;
23578;SDS011;11967;50.852;4.400;2023-05-10T06:10:08;21.27;;;13.00;;
23578;SDS011;11967;50.852;4.400;2023-05-10T06:12:34;20.92;;;11.98;;
23578;SDS011;11967;50.852;4.400;2023-05-10T06:15:00;22.83;;;13.15;;
23578;SDS011;11967;50.852;4.400;2023-05-10T06:17:26;21.50;;;12.35;;
23578;SDS011;11967;50.852;4.400;2023-05-10T06:19:52;21.20;;;12.95;;
23578;SDS011;11967;50.852;4.400;2023-05-10T06:22:18;24.92;;;14.23;;
23578;SDS011;11967;50.852;4.400;2023-05-10T06:24:43;25.33;;;13.90;;
23578;SDS011;11967;50.852;4.400;2023-05-10T06:27:09;27.25;;;13.55;;
23578;SDS011;11967;50.852;4.400;2023-05-10T06:29:35;21.63;;;11.80;;
23578;SDS011;11967;50.852;4.400;2023-05-10T06:32:00;18.73;;;10.43;;
23578;SDS011;11967;50.852;4.400;2023-05-10T06:34:26;19.98;;;9.70;;
23578;SDS011;11967;50.852;4.400;2023-05-10T06:36:52;13.20;;;7.82;;
23578;SDS011;11967;50.852;4.400;2023-05-10T06:39:17;12.10;;;7.05;;
23578;SDS011;11967;50.852;4.400;2023-05-10T06:41:43;10.73;;;6.65;;
23578;SDS011;11967;50.852;4.400;2023-05-10T06:44:09;14.32;;;6.22;;
23578;SDS011;11967;50.852;4.400;2023-05-10T06:46:34;11.43;;;6.80;;
23578;SDS011;11967;50.852;4.400;2023-05-10T06:49:00;11.88;;;6.10;;
23578;SDS011;11967;50.852;4.400;2023-05-10T06:51:26;9.93;;;6.10;;
23578;SDS011;11967;50.852;4.400;2023-05-10T06:53:51;10.90;;;6.03;;
23578;SDS011;11967;50.852;4.400;2023-05-10T06:56:17;13.77;;;7.30;;
23578;SDS011;11967;50.852;4.400;2023-05-10T06:58:46;14.32;;;7.20;;
23578;SDS011;11967;50.852;4.400;2023-05-10T07:01:15;12.75;;;6.85;;
23578;SDS011;11967;50.852;4.400;2023-05-10T07:03:40;15.75;;;8.98;;
23578;SDS011;11967;50.852;4.400;2023-05-10T07:06:06;16.83;;;8.63;;
23578;SDS011;11967;50.852;4.400;2023-05-10T07:08:35;16.13;;;9.05;;
23578;SDS011;11967;50.852;4.400;2023-05-10T07:11:01;23.90;;;11.15;;
23578;SDS011;11967;50.852;4.400;2023-05-10T07:13:29;21.35;;;11.05;;
23578;SDS011;11967;50.852;4.400;2023-05-10T07:15:56;19.92;;;10.27;;
23578;SDS011;11967;50.852;4.400;2023-05-10T07:18:22;19.38;;;10.23;;
23578;SDS011;11967;50.852;4.400;2023-05-10T07:20:48;17.75;;;10.48;;
23578;SDS011;11967;50.852;4.400;2023-05-10T07:23:13;22.17;;;10.25;;
23578;SDS011;11967;50.852;4.400;2023-05-10T07:25:40;19.17;;;10.88;;
23578;SDS011;11967;50.852;4.400;2023-05-10T07:28:05;23.48;;;10.73;;
23578;SDS011;11967;50.852;4.400;2023-05-10T07:30:31;18.90;;;10.85;;
23578;SDS011;11967;50.852;4.400;2023-05-10T07:32:57;23.10;;;10.32;;
23578;SDS011;11967;50.852;4.400;2023-05-10T07:35:22;23.35;;;11.50;;
23578;SDS011;11967;50.852;4.400;2023-05-10T07:37:48;26.88;;;11.35;;
23578;SDS011;11967;50.852;4.400;2023-05-10T07:40:13;24.40;;;11.52;;
23578;SDS011;11967;50.852;4.400;2023-05-10T07:42:39;21.77;;;9.80;;
23578;SDS011;11967;50.852;4.400;2023-05-10T07:45:05;20.73;;;10.02;;
23578;SDS011;11967;50.852;4.400;2023-05-10T07:47:31;20.25;;;10.35;;
23578;SDS011;11967;50.852;4.400;2023-05-10T07:49:57;22.48;;;9.25;;
23578;SDS011;11967;50.852;4.400;2023-05-10T07:52:22;18.70;;;10.02;;
23578;SDS011;11967;50.852;4.400;2023-05-10T07:54:48;23.38;;;9.40;;
23578;SDS011;11967;50.852;4.400;2023-05-10T07:57:14;13.93;;;9.25;;
23578;SDS011;11967;50.852;4.400;2023-05-10T07:59:42;17.55;;;9.35;;
23578;SDS011;11967;50.852;4.400;2023-05-10T08:02:08;20.45;;;10.02;;
23578;SDS011;11967;50.852;4.400;2023-05-10T08:04:34;17.38;;;9.95;;
23578;SDS011;11967;50.852;4.400;2023-05-10T08:07:00;17.30;;;8.98;;
23578;SDS011;11967;50.852;4.400;2023-05-10T08:09:25;17.33;;;8.50;;
23578;SDS011;11967;50.852;4.400;2023-05-10T08:11:51;18.23;;;8.93;;
23578;SDS011;11967;50.852;4.400;2023-05-10T08:14:17;16.02;;;7.85;;
23578;SDS011;11967;50.852;4.400;2023-05-10T08:16:43;21.27;;;8.85;;
23578;SDS011;11967;50.852;4.400;2023-05-10T08:19:08;17.42;;;8.50;;
23578;SDS011;11967;50.852;4.400;2023-05-10T08:21:34;15.15;;;8.27;;
23578;SDS011;11967;50.852;4.400;2023-05-10T08:24:01;16.88;;;8.95;;
23578;SDS011;11967;50.852;4.400;2023-05-10T08:26:28;17.88;;;9.23;;
23578;SDS011;11967;50.852;4.400;2023-05-10T08:28:55;14.43;;;7.25;;
23578;SDS011;11967;50.852;4.400;2023-05-10T08:31:21;14.43;;;8.10;;
23578;SDS011;11967;50.852;4.400;2023-05-10T08:33:46;13.48;;;7.63;;
23578;SDS011;11967;50.852;4.400;2023-05-10T08:36:12;13.90;;;6.88;;
23578;SDS011;11967;50.852;4.400;2023-05-10T08:38:39;18.73;;;7.00;;
23578;SDS011;11967;50.852;4.400;2023-05-10T08:41:04;10.57;;;6.95;;
23578;SDS011;11967;50.852;4.400;2023-05-10T08:43:31;13.23;;;7.25;;
23578;SDS011;11967;50.852;4.400;2023-05-10T08:46:01;11.60;;;6.97;;
23578;SDS011;11967;50.852;4.400;2023-05-10T08:48:30;10.23;;;6.55;;
23578;SDS011;11967;50.852;4.400;2023-05-10T08:50:59;10.02;;;5.95;;
23578;SDS011;11967;50.852;4.400;2023-05-10T08:53:27;12.57;;;6.15;;
23578;SDS011;11967;50.852;4.400;2023-05-10T08:55:55;13.05;;;7.18;;
23578;SDS011;11967;50.852;4.400;2023-05-10T08:58:21;8.35;;;5.32;;
23578;SDS011;11967;50.852;4.400;2023-05-10T09:00:48;13.90;;;7.03;;
23578;SDS011;11967;50.852;4.400;2023-05-10T09:03:15;12.73;;;7.53;;
23578;SDS011;11967;50.852;4.400;2023-05-10T09:05:41;13.25;;;7.70;;
23578;SDS011;11967;50.852;4.400;2023-05-10T09:08:07;11.18;;;7.53;;
23578;SDS011;11967;50.852;4.400;2023-05-10T09:10:34;13.10;;;7.50;;
23578;SDS011;11967;50.852;4.400;2023-05-10T09:13:00;10.80;;;7.35;;
23578;SDS011;11967;50.852;4.400;2023-05-10T09:15:26;14.80;;;7.70;;
23578;SDS011;11967;50.852;4.400;2023-05-10T09:17:52;12.38;;;8.38;;
23578;SDS011;11967;50.852;4.400;2023-05-10T09:20:19;13.73;;;7.70;;
23578;SDS011;11967;50.852;4.400;2023-05-10T09:22:45;14.70;;;7.95;;
23578;SDS011;11967;50.852;4.400;2023-05-10T09:25:12;10.75;;;7.15;;
23578;SDS011;11967;50.852;4.400;2023-05-10T09:27:43;13.15;;;7.57;;
23578;SDS011;11967;50.852;4.400;2023-05-10T09:30:10;10.18;;;6.93;;
23578;SDS011;11967;50.852;4.400;2023-05-10T09:32:53;10.35;;;6.45;;
23578;SDS011;11967;50.852;4.400;2023-05-10T09:35:22;9.85;;;6.35;;
23578;SDS011;11967;50.852;4.400;2023-05-10T09:37:50;12.27;;;6.93;;
23578;SDS011;11967;50.852;4.400;2023-05-10T09:40:20;9.75;;;6.22;;
23578;SDS011;11967;50.852;4.400;2023-05-10T09:43:20;8.48;;;5.72;;
23578;SDS011;11967;50.852;4.400;2023-05-10T09:45:40;10.45;;;5.90;;
23578;SDS011;11967;50.852;4.400;2023-05-10T09:48:06;10.32;;;5.70;;
23578;SDS011;11967;50.852;4.400;2023-05-10T09:50:32;10.25;;;5.18;;
23578;SDS011;11967;50.852;4.400;2023-05-10T09:52:59;8.05;;;4.93;;
23578;SDS011;11967;50.852;4.400;2023-05-10T09:55:40;7.93;;;5.25;;
23578;SDS011;11967;50.852;4.400;2023-05-10T09:58:09;5.88;;;4.70;;
23578;SDS011;11967;50.852;4.400;2023-05-10T10:00:39;7.45;;;4.85;;
23578;SDS011;11967;50.852;4.400;2023-05-10T10:03:11;6.85;;;5.35;;
23578;SDS011;11967;50.852;4.400;2023-05-10T10:05:40;9.02;;;5.55;;
23578;SDS011;11967;50.852;4.400;2023-05-10T10:08:07;8.73;;;5.75;;
23578;SDS011;11967;50.852;4.400;2023-05-10T10:10:33;10.40;;;6.30;;
23578;SDS011;11967;50.852;4.400;2023-05-10T10:13:01;8.57;;;5.90;;
23578;SDS011;11967;50.852;4.400;2023-05-10T10:15:27;9.32;;;6.43;;
23578;SDS011;11967;50.852;4.400;2023-05-10T10:17:53;8.68;;;6.35;;
23578;SDS011;11967;50.852;4.400;2023-05-10T10:20:19;7.65;;;6.15;;
23578;SDS011;11967;50.852;4.400;2023-05-10T10:22:46;9.25;;;5.93;;
23578;SDS011;11967;50.852;4.400;2023-05-10T10:25:15;9.27;;;5.93;;
23578;SDS011;11967;50.852;4.400;2023-05-10T10:30:30;7.60;;;5.78;;
23578;SDS011;11967;50.852;4.400;2023-05-10T10:35:52;8.48;;;6.18;;
23578;SDS011;11967;50.852;4.400;2023-05-10T10:38:18;7.70;;;5.70;;
23578;SDS011;11967;50.852;4.400;2023-05-10T10:40:43;9.13;;;6.05;;
23578;SDS011;11967;50.852;4.400;2023-05-10T10:43:26;9.55;;;6.47;;
23578;SDS011;11967;50.852;4.400;2023-05-10T10:49:09;7.80;;;5.47;;
23578;SDS011;11967;50.852;4.400;2023-05-10T10:51:39;8.45;;;5.47;;
23578;SDS011;11967;50.852;4.400;2023-05-10T10:54:11;9.80;;;5.30;;
23578;SDS011;11967;50.852;4.400;2023-05-10T10:56:37;7.40;;;5.47;;
23578;SDS011;11967;50.852;4.400;2023-05-10T10:59:03;8.63;;;5.85;;
23578;SDS011;11967;50.852;4.400;2023-05-10T11:01:35;11.40;;;6.28;;
23578;SDS011;11967;50.852;4.400;2023-05-10T11:06:30;8.48;;;5.93;;
23578;SDS011;11967;50.852;4.400;2023-05-10T11:08:57;8.75;;;6.00;;
23578;SDS011;11967;50.852;4.400;2023-05-10T11:11:24;7.25;;;5.30;;
23578;SDS011;11967;50.852;4.400;2023-05-10T11:13:50;8.27;;;5.47;;
23578;SDS011;11967;50.852;4.400;2023-05-10T11:18:59;7.82;;;5.50;;
23578;SDS011;11967;50.852;4.400;2023-05-10T11:21:32;10.18;;;6.00;;
23578;SDS011;11967;50.852;4.400;2023-05-10T11:23:59;10.68;;;5.97;;
23578;SDS011;11967;50.852;4.400;2023-05-10T11:26:29;8.15;;;5.72;;
23578;SDS011;11967;50.852;4.400;2023-05-10T11:28:57;9.18;;;5.78;;
23578;SDS011;11967;50.852;4.400;2023-05-10T11:31:25;12.10;;;6.30;;
23578;SDS011;11967;50.852;4.400;2023-05-10T11:33:58;12.00;;;6.93;;
23578;SDS011;11967;50.852;4.400;2023-05-10T11:36:28;11.57;;;6.50;;
23578;SDS011;11967;50.852;4.400;2023-05-10T11:38:57;8.90;;;6.32;;
23578;SDS011;11967;50.852;4.400;2023-05-10T11:41:23;7.50;;;5.88;;
23578;SDS011;11967;50.852;4.400;2023-05-10T11:43:50;8.40;;;6.18;;
23578;SDS011;11967;50.852;4.400;2023-05-10T11:46:17;9.27;;;6.20;;
23578;SDS011;11967;50.852;4.400;2023-05-10T11:48:45;8.65;;;5.95;;
23578;SDS011;11967;50.852;4.400;2023-05-10T11:51:15;9.95;;;5.57;;
23578;SDS011;11967;50.852;4.400;2023-05-10T11:53:44;8.27;;;6.07;;
23578;SDS011;11967;50.852;4.400;2023-05-10T11:56:10;9.38;;;5.95;;
23578;SDS011;11967;50.852;4.400;2023-05-10T11:58:39;8.70;;;6.22;;
23578;SDS011;11967;50.852;4.400;2023-05-10T12:01:07;8.57;;;6.57;;
23578;SDS011;11967;50.852;4.400;2023-05-10T12:03:34;9.98;;;6.10;;
23578;SDS011;11967;50.852;4.400;2023-05-10T12:06:00;9.90;;;6.35;;
23578;SDS011;11967;50.852;4.400;2023-05-10T12:08:27;10.85;;;7.38;;
23578;SDS011;11967;50.852;4.400;2023-05-10T12:11:05;9.18;;;6.55;;
23578;SDS011;11967;50.852;4.400;2023-05-10T12:13:32;9.02;;;6.75;;
23578;SDS011;11967;50.852;4.400;2023-05-10T12:16:13;10.75;;;7.85;;
23578;SDS011;11967;50.852;4.400;2023-05-10T12:18:40;10.88;;;7.07;;
23578;SDS011;11967;50.852;4.400;2023-05-10T12:21:07;10.40;;;6.43;;
23578;SDS011;11967;50.852;4.400;2023-05-10T12:23:35;9.95;;;7.30;;
23578;SDS011;11967;50.852;4.400;2023-05-10T12:26:02;10.18;;;7.10;;
23578;SDS011;11967;50.852;4.400;2023-05-10T12:28:29;9.40;;;7.40;;
23578;SDS011;11967;50.852;4.400;2023-05-10T12:30:56;13.43;;;7.70;;
23578;SDS011;11967;50.852;4.400;2023-05-10T12:33:23;11.60;;;6.57;;
23578;SDS011;11967;50.852;4.400;2023-05-10T12:35:50;11.05;;;7.25;;
23578;SDS011;11967;50.852;4.400;2023-05-10T12:38:28;10.65;;;7.88;;
23578;SDS011;11967;50.852;4.400;2023-05-10T12:40:59;10.55;;;7.78;;
23578;SDS011;11967;50.852;4.400;2023-05-10T12:43:26;12.90;;;8.18;;
23578;SDS011;11967;50.852;4.400;2023-05-10T12:45:52;8.25;;;6.82;;
23578;SDS011;11967;50.852;4.400;2023-05-10T12:48:18;10.90;;;6.95;;
23578;SDS011;11967;50.852;4.400;2023-05-10T12:50:43;11.52;;;7.80;;
23578;SDS011;11967;50.852;4.400;2023-05-10T12:53:10;13.77;;;8.57;;
23578;SDS011;11967;50.852;4.400;2023-05-10T12:55:36;14.07;;;9.02;;
23578;SDS011;11967;50.852;4.400;2023-05-10T12:58:02;12.43;;;8.02;;
23578;SDS011;11967;50.852;4.400;2023-05-10T13:00:27;11.38;;;7.82;;
23578;SDS011;11967;50.852;4.400;2023-05-10T13:02:53;10.27;;;7.07;;
23578;SDS011;11967;50.852;4.400;2023-05-10T13:05:18;10.73;;;7.53;;
23578;SDS011;11967;50.852;4.400;2023-05-10T13:07:44;11.07;;;6.28;;
23578;SDS011;11967;50.852;4.400;2023-05-10T13:10:10;9.50;;;6.70;;
23578;SDS011;11967;50.852;4.400;2023-05-10T13:12:36;11.63;;;6.90;;
23578;SDS011;11967;50.852;4.400;2023-05-10T13:15:02;12.50;;;7.50;;
23578;SDS011;11967;50.852;4.400;2023-05-10T13:17:28;10.30;;;6.90;;
23578;SDS011;11967;50.852;4.400;2023-05-10T13:19:54;11.90;;;6.95;;
23578;SDS011;11967;50.852;4.400;2023-05-10T13:22:20;7.00;;;5.22;;
23578;SDS011;11967;50.852;4.400;2023-05-10T13:24:45;7.70;;;4.78;;
23578;SDS011;11967;50.852;4.400;2023-05-10T13:27:11;9.00;;;5.50;;
23578;SDS011;11967;50.852;4.400;2023-05-10T13:29:37;12.02;;;6.03;;
23578;SDS011;11967;50.852;4.400;2023-05-10T13:32:02;8.98;;;6.10;;
23578;SDS011;11967;50.852;4.400;2023-05-10T13:34:28;9.52;;;6.00;;
23578;SDS011;11967;50.852;4.400;2023-05-10T13:36:54;9.15;;;6.47;;
23578;SDS011;11967;50.852;4.400;2023-05-10T13:39:21;10.00;;;7.10;;
23578;SDS011;11967;50.852;4.400;2023-05-10T13:41:47;16.00;;;8.15;;
23578;SDS011;11967;50.852;4.400;2023-05-10T13:44:13;13.85;;;8.50;;
23578;SDS011;11967;50.852;4.400;2023-05-10T13:46:40;16.83;;;8.80;;
23578;SDS011;11967;50.852;4.400;2023-05-10T13:49:06;12.10;;;7.60;;
23578;SDS011;11967;50.852;4.400;2023-05-10T13:51:32;12.52;;;7.50;;
23578;SDS011;11967;50.852;4.400;2023-05-10T13:53:58;13.93;;;7.88;;
23578;SDS011;11967;50.852;4.400;2023-05-10T13:56:25;13.05;;;7.90;;
23578;SDS011;11967;50.852;4.400;2023-05-10T13:58:51;12.48;;;7.75;;
23578;SDS011;11967;50.852;4.400;2023-05-10T14:01:17;10.30;;;8.30;;
23578;SDS011;11967;50.852;4.400;2023-05-10T14:03:42;13.77;;;8.88;;
23578;SDS011;11967;50.852;4.400;2023-05-10T14:06:08;13.57;;;8.77;;
23578;SDS011;11967;50.852;4.400;2023-05-10T14:08:34;14.95;;;9.65;;
23578;SDS011;11967;50.852;4.400;2023-05-10T14:11:00;14.30;;;10.85;;
23578;SDS011;11967;50.852;4.400;2023-05-10T14:13:26;15.18;;;10.73;;
23578;SDS011;11967;50.852;4.400;2023-05-10T14:15:52;18.75;;;12.35;;
23578;SDS011;11967;50.852;4.400;2023-05-10T14:18:19;18.55;;;12.98;;
23578;SDS011;11967;50.852;4.400;2023-05-10T14:20:44;19.27;;;12.43;;
23578;SDS011;11967;50.852;4.400;2023-05-10T14:23:10;20.30;;;13.07;;
23578;SDS011;11967;50.852;4.400;2023-05-10T14:25:36;18.17;;;12.40;;
23578;SDS011;11967;50.852;4.400;2023-05-10T14:28:03;23.17;;;13.52;;
23578;SDS011;11967;50.852;4.400;2023-05-10T14:30:28;17.23;;;12.70;;
23578;SDS011;11967;50.852;4.400;2023-05-10T14:32:54;17.75;;;12.57;;
23578;SDS011;11967;50.852;4.400;2023-05-10T14:35:20;20.58;;;13.30;;
23578;SDS011;11967;50.852;4.400;2023-05-10T14:37:46;16.92;;;12.18;;
23578;SDS011;11967;50.852;4.400;2023-05-10T14:40:12;18.40;;;11.82;;
23578;SDS011;11967;50.852;4.400;2023-05-10T14:42:37;21.50;;;12.60;;
23578;SDS011;11967;50.852;4.400;2023-05-10T14:45:03;18.40;;;12.52;;
23578;SDS011;11967;50.852;4.400;2023-05-10T14:47:29;19.27;;;12.30;;
23578;SDS011;11967;50.852;4.400;2023-05-10T14:49:55;20.70;;;12.85;;
23578;SDS011;11967;50.852;4.400;2023-05-10T14:52:20;21.00;;;12.40;;
23578;SDS011;11967;50.852;4.400;2023-05-10T14:54:46;21.80;;;12.48;;
23578;SDS011;11967;50.852;4.400;2023-05-10T14:57:13;29.98;;;14.45;;
23578;SDS011;11967;50.852;4.400;2023-05-10T14:59:39;19.23;;;13.00;;
23578;SDS011;11967;50.852;4.400;2023-05-10T15:02:04;21.63;;;13.18;;
23578;SDS011;11967;50.852;4.400;2023-05-10T15:04:30;18.45;;;12.43;;
23578;SDS011;11967;50.852;4.400;2023-05-10T15:06:56;23.40;;;12.23;;